createdAt,value
2023-03-05T00:01:41.902Z,1.10
2023-03-05T00:04:31.032Z,1.10
2023-03-05T00:07:19.676Z,1.20
2023-03-05T00:10:09.540Z,1.20
2023-03-05T00:12:58.493Z,1.10
2023-03-05T00:15:48.708Z,1.20
2023-03-05T00:18:37.697Z,1.10
2023-03-05T00:21:27.954Z,1.20
2023-03-05T00:24:19.324Z,1.20
2023-03-05T00:27:11.294Z,1.10
2023-03-05T00:30:00.154Z,1.20
2023-03-05T00:32:50.231Z,1.00
2023-03-05T00:35:41.498Z,1.00
2023-03-05T00:38:30.291Z,1.00
2023-03-05T00:41:19.086Z,1.00
2023-03-05T00:44:08.386Z,1.10
2023-03-05T00:46:57.105Z,1.10
2023-03-05T00:49:47.381Z,1.00
2023-03-05T00:52:36.101Z,0.90
2023-03-05T00:55:24.982Z,0.90
2023-03-05T00:58:14.255Z,0.80
2023-03-05T01:01:04.255Z,0.90
2023-03-05T01:03:53.274Z,1.00
2023-03-05T01:06:44.935Z,0.80
2023-03-05T01:09:35.724Z,0.80
2023-03-05T01:12:24.971Z,0.90
2023-03-05T01:15:13.717Z,0.90
2023-03-05T01:18:02.599Z,0.90
2023-03-05T01:20:51.283Z,0.90
2023-03-05T01:23:41.652Z,0.90
2023-03-05T01:26:30.334Z,0.90
2023-03-05T01:29:19.244Z,0.80
2023-03-05T01:32:08.685Z,0.80
2023-03-05T01:34:57.434Z,0.90
2023-03-05T01:37:46.418Z,0.80
2023-03-05T01:40:36.568Z,0.80
2023-03-05T01:43:27.506Z,0.90
2023-03-05T01:46:37.242Z,0.80
2023-03-05T01:49:27.933Z,0.70
2023-03-05T01:52:20.972Z,0.70
2023-03-05T01:55:14.878Z,0.60
2023-03-05T01:58:07.250Z,0.50
2023-03-05T02:00:57.388Z,0.60
2023-03-05T02:03:46.501Z,0.70
2023-03-05T02:06:35.678Z,0.50
2023-03-05T02:09:24.519Z,0.60
2023-03-05T02:12:14.903Z,0.70
2023-03-05T02:15:07.579Z,0.80
2023-03-05T02:17:56.772Z,0.60
2023-03-05T02:20:47.398Z,0.60
2023-03-05T02:23:39.161Z,0.50
2023-03-05T02:26:27.899Z,0.50
2023-03-05T02:29:21.009Z,0.50
2023-03-05T02:32:09.841Z,0.50
2023-03-05T02:34:58.603Z,0.40
2023-03-05T02:37:47.349Z,0.50
2023-03-05T02:40:40.883Z,0.30
2023-03-05T02:43:29.838Z,0.50
2023-03-05T02:46:19.076Z,0.50
2023-03-05T02:49:08.074Z,0.40
2023-03-05T02:51:56.959Z,0.40
2023-03-05T02:54:45.843Z,0.50
2023-03-05T02:57:35.947Z,0.40
2023-03-05T03:00:25.092Z,0.40
2023-03-05T03:03:14.505Z,0.40
2023-03-05T03:06:03.533Z,0.50
2023-03-05T03:08:52.242Z,0.60
2023-03-05T03:11:40.970Z,0.40
2023-03-05T03:14:32.889Z,0.40
2023-03-05T03:17:21.497Z,0.30
2023-03-05T03:20:15.309Z,0.40
2023-03-05T03:23:04.100Z,0.40
2023-03-05T03:25:52.838Z,0.30
2023-03-05T03:28:41.659Z,0.40
2023-03-05T03:31:32.358Z,0.40
2023-03-05T03:34:22.352Z,0.20
2023-03-05T03:37:15.041Z,0.40
2023-03-05T03:40:05.910Z,0.40
2023-03-05T03:42:58.340Z,0.50
2023-03-05T03:45:47.241Z,0.40
2023-03-05T03:48:37.370Z,0.40
2023-03-05T03:51:26.122Z,0.30
2023-03-05T03:54:15.169Z,0.40
2023-03-05T03:57:04.466Z,0.40
2023-03-05T03:59:53.154Z,0.30
2023-03-05T04:02:41.926Z,0.50
2023-03-05T04:05:32.409Z,0.40
2023-03-05T04:08:21.337Z,0.30
2023-03-05T04:11:10.319Z,0.30
2023-03-05T04:13:59.004Z,0.40
2023-03-05T04:16:47.631Z,0.40
2023-03-05T04:19:36.368Z,0.20
2023-03-05T04:22:26.447Z,0.20
2023-03-05T04:25:15.585Z,0.30
2023-03-05T04:28:04.292Z,0.30
2023-03-05T04:30:53.510Z,0.30
2023-03-05T04:33:42.199Z,0.40
2023-03-05T04:36:31.047Z,0.30
2023-03-05T04:39:21.898Z,0.30
2023-03-05T04:42:14.818Z,0.30
2023-03-05T04:45:03.940Z,0.50
2023-03-05T04:47:52.593Z,0.50
2023-03-05T04:50:41.455Z,0.40
2023-03-05T04:53:30.216Z,0.40
2023-03-05T04:56:20.322Z,0.40
2023-03-05T04:59:09.085Z,0.40
2023-03-05T05:01:58.109Z,0.40
2023-03-05T05:04:46.879Z,0.50
2023-03-05T05:07:35.620Z,0.40
2023-03-05T05:10:24.695Z,0.50
2023-03-05T05:13:14.720Z,0.60
2023-03-05T05:16:03.695Z,0.50
2023-03-05T05:18:52.394Z,0.50
2023-03-05T05:21:41.211Z,0.50
2023-03-05T05:24:30.155Z,0.40
2023-03-05T05:27:18.882Z,0.50
2023-03-05T05:30:10.731Z,0.40
2023-03-05T05:33:02.877Z,0.30
2023-03-05T05:35:52.127Z,0.30
2023-03-05T05:38:40.957Z,0.40
2023-03-05T05:41:29.978Z,0.40
2023-03-05T05:44:19.465Z,0.40
2023-03-05T05:47:09.609Z,0.50
2023-03-05T05:49:58.740Z,0.50
2023-03-05T05:52:47.935Z,0.50
2023-03-05T05:55:36.678Z,0.60
2023-03-05T05:58:25.676Z,0.60
2023-03-05T06:01:16.332Z,0.60
2023-03-05T06:04:06.502Z,0.70
2023-03-05T06:06:55.406Z,0.80
2023-03-05T06:09:44.416Z,0.60
2023-03-05T06:12:33.400Z,0.60
2023-03-05T06:15:22.749Z,0.60
2023-03-05T06:18:11.423Z,0.60
2023-03-05T06:21:03.232Z,0.60
2023-03-05T06:23:52.455Z,0.60
2023-03-05T06:26:41.630Z,0.70
2023-03-05T06:29:30.339Z,0.80
2023-03-05T06:32:19.296Z,0.80
2023-03-05T06:35:09.476Z,0.80
2023-03-05T06:37:59.711Z,0.90
2023-03-05T06:40:48.392Z,1.10
2023-03-05T06:43:38.684Z,1.20
2023-03-05T06:46:29.162Z,1.40
2023-03-05T06:49:17.921Z,1.40
2023-03-05T06:52:10.179Z,1.30
2023-03-05T06:55:00.239Z,1.50
2023-03-05T06:57:49.063Z,1.50
2023-03-05T07:00:37.803Z,1.50
2023-03-05T07:03:26.449Z,1.70
2023-03-05T07:06:16.286Z,1.70
2023-03-05T07:09:07.002Z,1.80
2023-03-05T07:11:57.056Z,2.10
2023-03-05T07:14:45.809Z,2.10
2023-03-05T07:17:34.512Z,1.90
2023-03-05T07:20:23.297Z,1.80
2023-03-05T07:23:12.133Z,2.10
2023-03-05T07:26:03.641Z,2.30
2023-03-05T07:28:53.928Z,2.40
2023-03-05T07:31:42.760Z,2.40
2023-03-05T07:34:31.512Z,2.50
2023-03-05T07:37:20.245Z,2.40
2023-03-05T07:40:10.453Z,2.50
2023-03-05T07:42:59.087Z,2.60
2023-03-05T07:45:54.088Z,2.60
2023-03-05T07:48:42.846Z,2.60
2023-03-05T07:51:32.237Z,2.80
2023-03-05T07:54:21.083Z,3.00
2023-03-05T07:57:12.587Z,3.00
2023-03-05T08:00:01.343Z,3.00
2023-03-05T08:03:02.339Z,2.80
2023-03-05T08:05:51.123Z,2.80
2023-03-05T08:08:40.157Z,2.70
2023-03-05T08:11:29.871Z,2.80
2023-03-05T08:14:18.667Z,2.90
2023-03-05T08:17:09.102Z,2.90
2023-03-05T08:20:00.338Z,2.90
2023-03-05T08:22:49.543Z,3.00
2023-03-05T08:25:38.991Z,3.00
2023-03-05T08:28:27.852Z,3.00
2023-03-05T08:31:17.716Z,2.90
2023-03-05T08:34:11.601Z,3.10
2023-03-05T08:37:02.019Z,2.90
2023-03-05T08:39:50.818Z,2.90
2023-03-05T08:42:39.591Z,2.80
2023-03-05T08:45:28.872Z,3.00
2023-03-05T08:48:17.553Z,3.00
2023-03-05T08:51:08.103Z,3.00
2023-03-05T08:54:00.329Z,3.00
2023-03-05T08:56:50.161Z,2.90
2023-03-05T08:59:38.896Z,2.90
2023-03-05T09:02:27.718Z,2.70
2023-03-05T09:05:16.472Z,2.90
2023-03-05T09:08:05.399Z,2.90
2023-03-05T09:10:55.691Z,3.00
2023-03-05T09:13:44.583Z,3.00
2023-03-05T09:16:33.706Z,3.00
2023-03-05T09:19:22.748Z,2.80
2023-03-05T09:22:11.476Z,2.90
2023-03-05T09:25:00.305Z,3.10
